KDVT/DVT METAR and TAF weather

Enter ICAO airport designator
Station Type Date Time Source
KDVT METAR 2019/06/17 12:53 UTC NOAA

KDVT 171253Z 09006KT 10SM CLR 27/03 A2980 RMK AO2 SLPNO T02670028


Station Type Date Time Source
KDVT Decoded METAR 2019/06/17 12:53 UTC NOAA

PHOENIX-DEER VALLEY MUN, AZ, United States (KDVT) 33-41N 112-04W 443M
Jun 17, 2019 - 08:53 AM EDT / 2019.06.17 1253 UTC
Wind: from the E (090 degrees) at 7 MPH (6 KT):0
Visibility: 10 mile(s):0
Sky conditions: clear
Temperature: 80.1 F (26.7 C)
Dew Point: 37.0 F (2.8 C)
Relative Humidity: 21%
Pressure (altimeter): 29.8 in. Hg (1009 hPa)
ob: KDVT 171253Z 09006KT 10SM CLR 27/03 A2980 RMK AO2 SLPNO T02670028
cycle: 13

Station Type Date Time Source
KDVT TAF 2019/06/17 12:42 UTC NOAA

TAF KDVT 171140Z 1712/1812 10006KT P6SM SCT150 BKN200
FM171800 17007KT P6SM SCT200
FM172200 21010KT P6SM FEW250
FM180100 23011G18KT P6SM FEW250
FM180400 22006KT P6SM SKC
FM180900 09005KT P6SM SKC

Example: see airport list